หน้าหลัก
METAR-TAF:

METAR-TAF

ท่าอากาศยาน :

ลูซากา, แซมเบีย

ละติจูด: 15-19-51S, ลองจิจูด: 028-27-09E, ความสูง: 1152 ม.

การสังเกตสภาพอากาศปัจจุบัน

รายงานได้ทำขึ้นเมื่อ 8 ชั่วโมงและ 17 นาทีที่แล้ว ณ เวลา 11:00 UTC
ลม 14 นอตจากตะวันออก
อุณหภูมิ 24°C
ความชื้น 31%
ความกดอากาศ 1026 hPa
ทัศนวิสัย 10 กม. หรือมากกว่า
มีเมฆกระจายเป็นบางส่วนที่ความสูง 4000 ฟุต

METAR: FLKK 271100Z 09014KT 9999 SCT040 24/06 Q1026 NOSIG

เวลา: 21:17 (19:17 UTC)


TAF: หายไป

สังเกตการณ์สภาพอากาศและพยากรณ์อากาศของสนามบินมากกว่า 4000 แห่ง (รายงาน METAR และ TAF).

สถานีที่ดูได้จะแสดงไว้ด้วยจุดสีเหลืองและสีแดงบนแผนที่.

เลื่อนเมาส์ไปเหนือจุดเพื่อดูชื่อสถานี.

แล้วคลิกเพื่อดูสังเกตการณ์และการพยากรณ์สภาพอากาศ.

ในการเปลี่ยนแผนที่: คลิกที่ปุ่มสีเขียวที่มีกากบาทสีดำเพื่อซูมเข้า; ที่ปุ่มสีเขียวที่มีขีดเพื่อซูมออก; หรือที่ลูกศรสีเขียวเพื่อไปยังแผนที่ที่อยู่ติดกัน.


METAR-TAF: